createdAt,value
2018-04-14T00:00:17.283Z,78.60
2018-04-14T00:02:44.536Z,77.90
2018-04-14T00:05:11.805Z,77.40
2018-04-14T00:07:38.781Z,77.20
2018-04-14T00:10:06.043Z,77.70
2018-04-14T00:12:33.616Z,77.10
2018-04-14T00:14:59.814Z,77.10
2018-04-14T00:17:26.749Z,77.70
2018-04-14T00:19:53.539Z,77.50
2018-04-14T00:22:20.281Z,77.30
2018-04-14T00:24:46.514Z,77.20
2018-04-14T00:27:12.714Z,76.90
2018-04-14T00:29:39.361Z,77.70
2018-04-14T00:32:06.391Z,78.30
2018-04-14T00:34:33.333Z,77.50
2018-04-14T00:37:09.082Z,77.90
2018-04-14T00:39:36.116Z,77.40
2018-04-14T00:42:03.320Z,77.40
2018-04-14T00:44:30.590Z,77.50
2018-04-14T00:46:57.653Z,77.70
2018-04-14T00:49:24.670Z,77.60
2018-04-14T00:51:51.459Z,77.70
2018-04-14T00:54:18.514Z,76.90
2018-04-14T00:56:45.466Z,76.90
2018-04-14T00:59:12.712Z,76.90
2018-04-14T01:01:39.664Z,76.90
2018-04-14T01:04:06.546Z,76.90
2018-04-14T01:06:32.995Z,77.00
2018-04-14T01:09:00.481Z,76.60
2018-04-14T01:11:27.425Z,76.90
2018-04-14T01:13:54.501Z,77.10
2018-04-14T01:16:20.697Z,77.00
2018-04-14T01:18:48.726Z,76.90
2018-04-14T01:21:16.012Z,76.90
2018-04-14T01:23:43.561Z,77.10
2018-04-14T01:26:10.278Z,77.10
2018-04-14T01:28:36.847Z,78.30
2018-04-14T01:31:03.019Z,77.80
2018-04-14T01:33:29.832Z,76.90
2018-04-14T01:35:57.292Z,77.50
2018-04-14T01:38:24.335Z,78.00
2018-04-14T01:40:52.353Z,77.80
2018-04-14T01:43:19.386Z,77.70
2018-04-14T01:45:45.685Z,77.70
2018-04-14T01:48:13.684Z,76.90
2018-04-14T01:50:40.220Z,76.90
2018-04-14T01:53:07.211Z,77.00
2018-04-14T01:55:34.009Z,77.00
2018-04-14T01:58:01.233Z,77.80
2018-04-14T02:00:28.705Z,77.60
2018-04-14T02:02:56.357Z,77.60
2018-04-14T02:05:22.838Z,77.60
2018-04-14T02:07:49.942Z,77.20
2018-04-14T02:10:16.556Z,77.20
2018-04-14T02:12:43.514Z,76.90
2018-04-14T02:15:09.924Z,76.90
2018-04-14T02:17:36.878Z,77.00
2018-04-14T02:20:03.788Z,77.60
2018-04-14T02:22:30.819Z,77.60
2018-04-14T02:24:58.338Z,77.80
2018-04-14T02:27:25.426Z,77.90
2018-04-14T02:29:53.374Z,78.00
2018-04-14T02:32:19.892Z,78.00
2018-04-14T02:34:46.413Z,77.50
2018-04-14T02:37:13.950Z,77.00
2018-04-14T02:39:40.201Z,77.00
2018-04-14T02:42:08.512Z,77.80
2018-04-14T02:44:35.684Z,77.80
2018-04-14T02:47:02.652Z,77.80
2018-04-14T02:49:28.860Z,77.70
2018-04-14T02:51:55.561Z,77.60
2018-04-14T02:54:23.170Z,77.70
2018-04-14T02:56:49.566Z,77.50
2018-04-14T02:59:16.901Z,77.50
2018-04-14T03:01:43.955Z,77.40
2018-04-14T03:04:10.761Z,77.40
2018-04-14T03:06:36.949Z,77.80
2018-04-14T03:09:04.202Z,77.80
2018-04-14T03:11:31.194Z,77.90
2018-04-14T03:13:58.757Z,77.40
2018-04-14T03:16:25.694Z,77.60
2018-04-14T03:18:52.799Z,77.60
2018-04-14T03:21:19.870Z,77.90
2018-04-14T03:23:46.323Z,77.90
2018-04-14T03:26:12.505Z,78.10
2018-04-14T03:28:38.796Z,79.70
2018-04-14T03:31:05.562Z,78.50
2018-04-14T03:33:32.318Z,78.20
2018-04-14T03:35:58.908Z,78.90
2018-04-14T03:38:26.602Z,79.20
2018-04-14T03:40:54.096Z,79.10
2018-04-14T03:43:21.219Z,82.00
2018-04-14T03:45:48.909Z,81.60
2018-04-14T03:48:15.899Z,81.70
2018-04-14T03:50:42.239Z,81.70
2018-04-14T03:53:09.430Z,82.70
2018-04-14T03:55:36.173Z,82.10
2018-04-14T03:58:02.968Z,82.20
2018-04-14T04:00:29.170Z,81.90
2018-04-14T04:02:56.112Z,80.80
2018-04-14T04:05:23.632Z,80.60
2018-04-14T04:07:49.856Z,80.50
2018-04-14T04:10:16.725Z,80.60
2018-04-14T04:12:43.732Z,80.40
2018-04-14T04:15:11.239Z,80.20
2018-04-14T04:17:38.773Z,79.50
2018-04-14T04:20:19.096Z,79.50
2018-04-14T04:22:57.401Z,79.60
2018-04-14T04:25:35.838Z,79.80
2018-04-14T04:28:02.314Z,79.80
2018-04-14T04:30:30.262Z,80.60
2018-04-14T04:32:56.976Z,80.60
2018-04-14T04:35:24.006Z,80.70
2018-04-14T04:37:50.333Z,80.60
2018-04-14T04:40:17.081Z,80.10
2018-04-14T04:42:43.796Z,80.90
2018-04-14T04:45:11.061Z,81.20
2018-04-14T04:47:37.259Z,81.40
2018-04-14T04:50:04.526Z,81.80
2018-04-14T04:52:31.269Z,81.80
2018-04-14T04:54:57.855Z,81.70
2018-04-14T04:57:25.498Z,82.20
2018-04-14T04:59:52.372Z,82.10
2018-04-14T05:02:18.947Z,82.60
2018-04-14T05:04:46.216Z,83.20
2018-04-14T05:07:12.691Z,83.10
2018-04-14T05:09:40.263Z,83.00
2018-04-14T05:12:08.436Z,82.10
2018-04-14T05:14:34.689Z,82.10
2018-04-14T05:17:01.435Z,81.50
2018-04-14T05:19:27.661Z,81.50
2018-04-14T05:21:54.025Z,78.80
2018-04-14T05:24:20.803Z,79.60
2018-04-14T05:26:47.877Z,80.30
2018-04-14T05:29:14.145Z,80.30
2018-04-14T05:31:40.859Z,79.00
2018-04-14T05:34:07.127Z,79.00
2018-04-14T05:36:33.484Z,79.70
2018-04-14T05:39:00.841Z,77.80
2018-04-14T05:41:27.813Z,77.50
2018-04-14T05:43:54.170Z,77.50
2018-04-14T05:46:20.404Z,76.00
2018-04-14T05:48:47.462Z,74.30
2018-04-14T05:51:13.841Z,73.90
2018-04-14T05:53:40.232Z,73.10
2018-04-14T05:56:06.494Z,70.20
2018-04-14T05:58:32.822Z,69.70
2018-04-14T06:00:59.313Z,68.40
2018-04-14T06:03:26.306Z,65.50
2018-04-14T06:05:52.549Z,65.50
2018-04-14T06:08:19.314Z,63.50
2018-04-14T06:10:45.878Z,62.00
2018-04-14T06:13:12.876Z,63.80
2018-04-14T06:15:39.116Z,63.90
2018-04-14T06:18:06.513Z,62.40
2018-04-14T06:20:34.688Z,57.10
2018-04-14T06:23:01.809Z,57.20
2018-04-14T06:25:28.984Z,57.80
2018-04-14T06:27:55.249Z,57.80
2018-04-14T06:30:21.473Z,56.40
2018-04-14T06:32:47.685Z,55.70
2018-04-14T06:35:14.634Z,56.10
2018-04-14T06:37:41.699Z,55.50
2018-04-14T06:40:08.366Z,55.50
2018-04-14T06:42:36.083Z,54.90
2018-04-14T06:45:03.069Z,55.70
2018-04-14T06:47:29.893Z,55.70
2018-04-14T06:49:56.144Z,55.40
2018-04-14T06:52:22.428Z,54.30
2018-04-14T06:54:50.066Z,51.80
2018-04-14T06:57:17.140Z,52.80
2018-04-14T06:59:44.842Z,52.70
2018-04-14T07:02:11.218Z,50.50
2018-04-14T07:04:38.237Z,50.40
2018-04-14T07:07:06.052Z,51.00
2018-04-14T07:09:33.121Z,51.20
2018-04-14T07:11:59.351Z,51.30
2018-04-14T07:14:25.759Z,52.60
2018-04-14T07:16:52.665Z,53.80
2018-04-14T07:19:19.465Z,54.10
2018-04-14T07:21:46.012Z,54.50
2018-04-14T07:24:14.817Z,54.00
2018-04-14T07:26:41.662Z,54.00
2018-04-14T07:29:08.254Z,55.20
2018-04-14T07:31:35.070Z,53.80
2018-04-14T07:34:02.637Z,51.80
2018-04-14T07:36:29.012Z,51.70
2018-04-14T07:38:56.003Z,50.60
2018-04-14T07:41:23.168Z,51.20
2018-04-14T07:43:49.746Z,51.30
2018-04-14T07:46:17.606Z,48.40
2018-04-14T07:48:43.819Z,48.30
2018-04-14T07:51:10.563Z,47.70
2018-04-14T07:53:37.537Z,47.50
2018-04-14T07:56:04.545Z,47.50
2018-04-14T07:58:31.183Z,47.50
2018-04-14T08:00:57.444Z,46.00
2018-04-14T08:03:24.470Z,44.90
2018-04-14T08:05:50.752Z,45.40
2018-04-14T08:08:17.459Z,44.00
2018-04-14T08:10:44.165Z,45.00
2018-04-14T08:13:10.476Z,45.90
2018-04-14T08:15:38.561Z,46.50
2018-04-14T08:18:05.853Z,46.50
2018-04-14T08:20:32.045Z,48.60
2018-04-14T08:22:59.338Z,47.20
2018-04-14T08:25:26.158Z,47.30
2018-04-14T08:27:53.351Z,47.40
2018-04-14T08:30:19.554Z,48.20
2018-04-14T08:32:45.758Z,47.40
2018-04-14T08:35:12.217Z,46.80
2018-04-14T08:37:39.750Z,46.80
2018-04-14T08:40:06.019Z,46.80
2018-04-14T08:42:32.811Z,47.20
2018-04-14T08:44:59.109Z,48.00
2018-04-14T08:47:26.279Z,47.90
2018-04-14T08:49:53.878Z,48.30
2018-04-14T08:52:20.076Z,48.30
2018-04-14T08:54:46.580Z,46.70
2018-04-14T08:57:14.311Z,47.50
2018-04-14T08:59:40.522Z,47.50
2018-04-14T09:02:07.085Z,47.10
2018-04-14T09:04:33.965Z,46.60
2018-04-14T09:07:00.703Z,46.20
2018-04-14T09:09:27.675Z,46.50
2018-04-14T09:11:54.797Z,46.60
2018-04-14T09:14:22.214Z,46.60
2018-04-14T09:16:48.674Z,44.70
2018-04-14T09:19:15.751Z,45.10
2018-04-14T09:21:42.509Z,45.00
2018-04-14T09:24:09.505Z,45.30
2018-04-14T09:26:37.084Z,45.80
2018-04-14T09:29:04.220Z,44.30
2018-04-14T09:31:31.779Z,44.70
2018-04-14T09:33:58.477Z,44.60
2018-04-14T09:36:25.371Z,43.10
2018-04-14T09:38:51.649Z,43.90
2018-04-14T09:41:18.400Z,42.70
2018-04-14T09:43:45.177Z,43.00
2018-04-14T09:46:12.414Z,43.80
2018-04-14T09:48:40.168Z,42.90
2018-04-14T09:51:07.152Z,42.50
2018-04-14T09:53:34.363Z,42.40
2018-04-14T09:56:00.611Z,42.00
2018-04-14T09:58:28.498Z,40.80
2018-04-14T10:01:01.145Z,41.70
2018-04-14T10:03:28.005Z,41.70
2018-04-14T10:05:54.249Z,42.10
2018-04-14T10:08:21.107Z,41.20
2018-04-14T10:10:48.246Z,39.30
2018-04-14T10:13:14.442Z,39.20
2018-04-14T10:15:42.074Z,40.10
2018-04-14T10:18:08.387Z,40.10
2018-04-14T10:20:35.132Z,40.10
2018-04-14T10:23:01.828Z,41.50
2018-04-14T10:25:29.067Z,40.40
2018-04-14T10:28:03.970Z,40.20
2018-04-14T10:30:30.747Z,40.50
2018-04-14T10:32:56.930Z,41.40
2018-04-14T10:35:26.065Z,39.90
2018-04-14T10:37:53.914Z,41.30
2018-04-14T10:40:20.064Z,41.40
2018-04-14T10:42:46.622Z,40.60
2018-04-14T10:45:13.655Z,41.80
2018-04-14T10:47:39.875Z,41.20
2018-04-14T10:50:06.290Z,40.40
2018-04-14T10:52:33.057Z,39.90
2018-04-14T10:54:59.434Z,39.00
2018-04-14T10:57:26.170Z,40.60
2018-04-14T10:59:52.568Z,39.90
2018-04-14T11:02:19.941Z,38.70
2018-04-14T11:04:47.524Z,39.00
2018-04-14T11:07:13.942Z,39.00
2018-04-14T11:09:40.989Z,37.20
2018-04-14T11:12:08.290Z,37.20
2018-04-14T11:14:35.473Z,37.60
2018-04-14T11:17:02.622Z,36.30
2018-04-14T11:19:29.982Z,36.30
2018-04-14T11:21:57.697Z,37.10
2018-04-14T11:24:24.961Z,36.60
2018-04-14T11:26:51.997Z,37.40
2018-04-14T11:29:19.511Z,35.80
2018-04-14T11:31:45.972Z,35.80
2018-04-14T11:34:14.148Z,37.00
2018-04-14T11:36:40.337Z,37.00
2018-04-14T11:39:07.095Z,37.40
2018-04-14T11:41:33.963Z,35.30
2018-04-14T11:44:01.345Z,33.60
2018-04-14T11:46:28.196Z,33.50
2018-04-14T11:48:55.072Z,32.70
2018-04-14T11:51:22.317Z,34.00
2018-04-14T11:53:49.311Z,31.20
2018-04-14T11:56:16.794Z,31.70
2018-04-14T11:58:43.585Z,31.70
2018-04-14T12:01:09.780Z,31.80
2018-04-14T12:03:36.276Z,32.90
2018-04-14T12:06:03.305Z,31.50
2018-04-14T12:08:30.250Z,32.00
2018-04-14T12:10:56.462Z,32.00
2018-04-14T12:13:22.682Z,32.60
2018-04-14T12:15:48.924Z,31.90
2018-04-14T12:18:15.143Z,30.00
2018-04-14T12:20:41.326Z,30.20
2018-04-14T12:23:08.103Z,29.70
2018-04-14T12:25:34.443Z,30.50
2018-04-14T12:28:01.277Z,31.50
2018-04-14T12:30:27.460Z,31.40
2018-04-14T12:32:54.107Z,29.40
2018-04-14T12:35:21.193Z,29.30
2018-04-14T12:37:47.413Z,29.30
2018-04-14T12:40:13.634Z,29.10
2018-04-14T12:42:40.753Z,29.10
2018-04-14T12:45:07.077Z,29.30
2018-04-14T12:47:33.972Z,29.80
2018-04-14T12:50:00.961Z,30.20
2018-04-14T12:52:27.428Z,30.20
2018-04-14T12:54:54.673Z,29.40
2018-04-14T12:57:21.297Z,29.40
2018-04-14T12:59:48.656Z,29.80
2018-04-14T13:02:15.394Z,30.10
2018-04-14T13:04:42.193Z,29.30
2018-04-14T13:07:09.753Z,29.50
2018-04-14T13:09:36.694Z,29.50
2018-04-14T13:12:03.643Z,29.50
2018-04-14T13:14:31.218Z,29.20
2018-04-14T13:16:58.999Z,29.50
2018-04-14T13:19:25.281Z,29.50
2018-04-14T13:21:51.507Z,29.60
2018-04-14T13:24:18.830Z,30.00
2018-04-14T13:26:45.080Z,29.40
2018-04-14T13:29:11.249Z,29.30
2018-04-14T13:31:38.199Z,29.00
2018-04-14T13:34:05.433Z,29.00
2018-04-14T13:36:32.397Z,27.90
2018-04-14T13:38:59.842Z,27.90
2018-04-14T13:41:27.527Z,28.60
2018-04-14T13:43:54.869Z,28.60
2018-04-14T13:46:21.612Z,29.40
2018-04-14T13:48:48.289Z,29.00
2018-04-14T13:51:15.923Z,29.30
2018-04-14T13:53:42.142Z,29.30
2018-04-14T13:56:08.464Z,29.00
2018-04-14T13:58:34.792Z,28.50
2018-04-14T14:01:01.009Z,28.50
2018-04-14T14:03:28.691Z,28.50
2018-04-14T14:05:56.358Z,29.20
2018-04-14T14:08:23.076Z,29.10
2018-04-14T14:10:50.564Z,28.50
2018-04-14T14:13:16.770Z,28.50
2018-04-14T14:15:43.012Z,28.80
2018-04-14T14:18:10.291Z,28.60
2018-04-14T14:20:37.267Z,29.40
2018-04-14T14:23:04.267Z,29.40
2018-04-14T14:25:45.326Z,29.70
2018-04-14T14:28:12.205Z,30.40
2018-04-14T14:30:39.005Z,29.80
2018-04-14T14:33:05.218Z,29.10
2018-04-14T14:35:32.668Z,29.20
2018-04-14T14:37:59.422Z,29.20
2018-04-14T14:40:26.272Z,29.60
2018-04-14T14:42:53.033Z,29.00
2018-04-14T14:45:19.424Z,28.70
2018-04-14T14:47:47.156Z,28.60
2018-04-14T14:50:20.043Z,28.60
2018-04-14T14:52:46.838Z,28.70
2018-04-14T14:55:13.067Z,29.40
2018-04-14T14:57:40.202Z,29.80
2018-04-14T15:00:06.645Z,29.40
2018-04-14T15:02:34.809Z,28.60
2018-04-14T15:05:01.240Z,28.60
2018-04-14T15:07:27.567Z,29.30
2018-04-14T15:09:54.535Z,28.30
2018-04-14T15:12:21.330Z,28.30
2018-04-14T15:14:47.606Z,27.30
2018-04-14T15:17:14.291Z,27.40
2018-04-14T15:19:40.570Z,27.90
2018-04-14T15:22:06.780Z,28.30
2018-04-14T15:24:33.082Z,28.40
2018-04-14T15:27:00.086Z,28.50
2018-04-14T15:29:26.333Z,28.60
2018-04-14T15:31:53.354Z,28.20
2018-04-14T15:34:20.280Z,27.60
2018-04-14T15:36:46.849Z,27.80
2018-04-14T15:39:13.838Z,28.80
2018-04-14T15:41:41.021Z,28.70
2018-04-14T15:44:09.492Z,28.40
2018-04-14T15:46:36.079Z,28.40
2018-04-14T15:49:02.404Z,28.50
2018-04-14T15:51:28.746Z,29.40
2018-04-14T15:53:55.004Z,29.40
2018-04-14T15:56:22.074Z,29.50
2018-04-14T15:58:48.303Z,29.50
2018-04-14T16:01:15.229Z,29.40
2018-04-14T16:03:44.725Z,29.30
2018-04-14T16:06:08.738Z,29.50
2018-04-14T16:08:36.013Z,29.10
2018-04-14T16:11:03.004Z,29.70
2018-04-14T16:13:30.249Z,30.00
2018-04-14T16:15:57.186Z,30.80
2018-04-14T16:18:24.629Z,30.40
2018-04-14T16:20:50.883Z,30.40
2018-04-14T16:23:17.072Z,30.80
2018-04-14T16:25:43.275Z,31.10
2018-04-14T16:28:09.861Z,30.50
2018-04-14T16:30:37.480Z,31.50
2018-04-14T16:33:05.588Z,31.10
2018-04-14T16:35:32.391Z,31.10
2018-04-14T16:37:59.052Z,32.00
2018-04-14T16:40:25.914Z,31.30
2018-04-14T16:42:53.254Z,30.90
2018-04-14T16:45:20.900Z,30.80
2018-04-14T16:47:48.028Z,30.80
2018-04-14T16:50:15.238Z,31.50
2018-04-14T16:52:42.279Z,31.90
2018-04-14T16:55:09.257Z,32.50
2018-04-14T16:57:36.273Z,32.50
2018-04-14T17:00:04.242Z,32.70
2018-04-14T17:02:31.223Z,32.00
2018-04-14T17:04:57.580Z,32.00
2018-04-14T17:07:24.434Z,31.70
2018-04-14T17:09:50.775Z,31.60
2018-04-14T17:12:17.307Z,31.40
2018-04-14T17:14:43.624Z,31.30
2018-04-14T17:17:10.481Z,32.50
2018-04-14T17:19:36.794Z,32.20
2018-04-14T17:22:02.989Z,32.50
2018-04-14T17:24:29.861Z,32.60
2018-04-14T17:26:57.124Z,33.30
2018-04-14T17:29:24.428Z,34.60
2018-04-14T17:31:52.056Z,35.10
2018-04-14T17:34:19.673Z,35.20
2018-04-14T17:36:46.452Z,35.20
2018-04-14T17:39:14.029Z,35.70
2018-04-14T17:41:40.269Z,35.70
2018-04-14T17:44:06.803Z,35.90
2018-04-14T17:46:35.369Z,37.70
2018-04-14T17:49:02.751Z,39.00
2018-04-14T17:51:30.105Z,40.10
2018-04-14T17:53:57.137Z,39.40
2018-04-14T17:56:23.481Z,40.00
2018-04-14T17:58:50.671Z,40.50
2018-04-14T18:01:16.949Z,40.50
2018-04-14T18:03:43.939Z,42.10
2018-04-14T18:06:10.813Z,42.00
2018-04-14T18:08:37.728Z,41.90
2018-04-14T18:11:05.309Z,42.20
2018-04-14T18:13:32.986Z,41.70
2018-04-14T18:16:00.012Z,42.70
2018-04-14T18:18:26.300Z,42.60
2018-04-14T18:20:52.632Z,42.30
2018-04-14T18:23:19.974Z,43.80
2018-04-14T18:25:46.762Z,44.50
2018-04-14T18:28:13.717Z,45.70
2018-04-14T18:30:40.730Z,45.00
2018-04-14T18:33:07.539Z,45.10
2018-04-14T18:35:34.265Z,45.00
2018-04-14T18:38:01.254Z,44.40
2018-04-14T18:40:28.296Z,44.50
2018-04-14T18:42:55.480Z,44.90
2018-04-14T18:45:22.071Z,44.90
2018-04-14T18:47:48.390Z,44.50
2018-04-14T18:50:14.888Z,46.00
2018-04-14T18:52:42.266Z,46.20
2018-04-14T18:55:09.035Z,46.20
2018-04-14T18:57:36.471Z,45.90
2018-04-14T19:00:04.161Z,45.80
2018-04-14T19:02:31.337Z,45.20
2018-04-14T19:04:58.910Z,46.30
2018-04-14T19:07:25.879Z,46.30
2018-04-14T19:09:52.534Z,46.60
2018-04-14T19:12:19.488Z,45.90
2018-04-14T19:14:46.599Z,46.70
2018-04-14T19:17:13.724Z,46.30
2018-04-14T19:19:40.915Z,46.20
2018-04-14T19:22:07.526Z,46.80
2018-04-14T19:24:34.644Z,47.40
2018-04-14T19:27:02.010Z,47.30
2018-04-14T19:29:28.387Z,47.40
2018-04-14T19:31:55.358Z,48.40
2018-04-14T19:34:22.685Z,48.40
2018-04-14T19:36:50.976Z,48.40
2018-04-14T19:39:17.494Z,48.40
2018-04-14T19:41:43.840Z,48.30
2018-04-14T19:44:10.355Z,48.20
2018-04-14T19:46:37.481Z,48.30
2018-04-14T19:49:03.998Z,48.30
2018-04-14T19:51:30.470Z,47.80
2018-04-14T19:53:58.087Z,48.90
2018-04-14T19:56:25.517Z,48.90
2018-04-14T19:58:52.405Z,48.90
2018-04-14T20:01:18.589Z,48.90
2018-04-14T20:03:45.465Z,48.90
2018-04-14T20:06:12.167Z,49.20
2018-04-14T20:08:38.536Z,49.20
2018-04-14T20:11:05.497Z,48.10
2018-04-14T20:13:33.209Z,50.20
2018-04-14T20:15:59.503Z,50.10
2018-04-14T20:18:27.007Z,49.10
2018-04-14T20:20:53.568Z,49.10
2018-04-14T20:23:20.336Z,49.30
2018-04-14T20:25:48.329Z,49.40
2018-04-14T20:28:14.537Z,49.40
2018-04-14T20:30:41.486Z,50.80
2018-04-14T20:33:08.810Z,49.90
2018-04-14T20:35:38.815Z,49.80
2018-04-14T20:38:05.135Z,50.00
2018-04-14T20:40:31.470Z,50.00
2018-04-14T20:42:58.271Z,51.30
2018-04-14T20:45:24.856Z,49.80
2018-04-14T20:47:53.774Z,50.00
2018-04-14T20:50:21.211Z,50.30
2018-04-14T20:52:48.604Z,50.50
2018-04-14T20:55:15.521Z,50.40
2018-04-14T20:57:42.198Z,50.40
2018-04-14T21:00:08.926Z,50.80
2018-04-14T21:02:35.287Z,50.60
2018-04-14T21:05:02.647Z,51.60
2018-04-14T21:07:29.633Z,51.80
2018-04-14T21:09:56.372Z,51.80
2018-04-14T21:12:23.329Z,53.20
2018-04-14T21:14:50.883Z,53.20
2018-04-14T21:17:17.889Z,53.10
2018-04-14T21:19:44.208Z,53.00
2018-04-14T21:22:11.822Z,52.00
2018-04-14T21:24:38.919Z,52.60
2018-04-14T21:27:05.716Z,52.60
2018-04-14T21:29:31.917Z,52.00
2018-04-14T21:31:58.718Z,53.10
2018-04-14T21:34:25.492Z,53.60
2018-04-14T21:36:52.373Z,52.90
2018-04-14T21:39:19.335Z,53.70
2018-04-14T21:41:46.739Z,53.70
2018-04-14T21:44:12.978Z,53.10
2018-04-14T21:46:40.599Z,52.50
2018-04-14T21:49:07.050Z,52.50
2018-04-14T21:51:33.364Z,54.00
2018-04-14T21:54:00.100Z,54.90
2018-04-14T21:56:26.589Z,54.40
2018-04-14T21:58:53.862Z,54.30
2018-04-14T22:01:20.090Z,54.20
2018-04-14T22:03:47.196Z,53.50
2018-04-14T22:06:14.265Z,54.10
2018-04-14T22:08:41.518Z,54.90
2018-04-14T22:11:07.864Z,54.90
2018-04-14T22:13:41.270Z,54.30
2018-04-14T22:16:07.993Z,53.80
2018-04-14T22:18:34.239Z,54.10
2018-04-14T22:21:00.719Z,53.80
2018-04-14T22:23:27.706Z,54.70
2018-04-14T22:25:53.901Z,54.60
2018-04-14T22:28:20.097Z,53.70
2018-04-14T22:30:46.940Z,54.20
2018-04-14T22:33:13.219Z,54.30
2018-04-14T22:35:40.768Z,55.00
2018-04-14T22:38:09.236Z,55.00
2018-04-14T22:40:35.970Z,55.00
2018-04-14T22:43:02.169Z,55.80
2018-04-14T22:45:29.117Z,55.90
2018-04-14T22:47:55.822Z,56.80
2018-04-14T22:50:22.299Z,55.90
2018-04-14T22:52:50.566Z,55.50
2018-04-14T22:55:16.759Z,55.50
2018-04-14T22:57:43.367Z,55.80
2018-04-14T23:00:11.071Z,55.90
2018-04-14T23:02:38.100Z,56.40
2018-04-14T23:05:04.403Z,56.30
2018-04-14T23:07:30.907Z,56.10
2018-04-14T23:09:57.904Z,56.20
2018-04-14T23:12:25.277Z,56.20
2018-04-14T23:14:51.465Z,56.50
2018-04-14T23:17:19.242Z,55.90
2018-04-14T23:19:46.695Z,55.70
2018-04-14T23:22:13.710Z,55.60
2018-04-14T23:24:40.436Z,55.50
2018-04-14T23:27:07.037Z,55.70
2018-04-14T23:29:33.774Z,55.40
2018-04-14T23:32:00.570Z,55.70
2018-04-14T23:34:26.786Z,56.00
2018-04-14T23:36:52.979Z,56.50
2018-04-14T23:39:19.203Z,55.80
2018-04-14T23:41:46.026Z,56.10
2018-04-14T23:44:13.650Z,56.40
2018-04-14T23:46:40.393Z,56.40
2018-04-14T23:49:06.586Z,56.20
2018-04-14T23:51:33.626Z,56.00
2018-04-14T23:54:00.728Z,55.80
2018-04-14T23:56:26.978Z,55.90
2018-04-14T23:58:53.981Z,57.00
